Scf Ural — ELZP7 — position and weather

sailwx.info

Track history (hours):
 
Tides and Currents Weather Stations Pressure Air Temp Water Temp Dewpoint Dewpoint Depression Visibility Wind Speed Wind Dir Waves Ship Positions

Scf Ural

Last reported at 2018-Jan-18 19:30 UTC. Time now 2018-Jan-18 19:38 UTC.
Position N 28°08' W 015°23'.

Length 274 m; draft 9.1 m.

Type: Ship. MMSI: 636011494.

Date/timePositionNaut miles runAvg speedWind from/ knotsBaromVisibWave heightAir tempDewpointWater temp
2018-Jan-18 19:30N 28°08' W 015°23'0 0.1
2018-Jan-18 19:00N 28°08' W 015°23'0 0.0
2018-Jan-18 18:27N 28°08' W 015°23'0 0.1
2018-Jan-18 18:00N 28°08' W 015°24'0 0.0
2018-Jan-18 17:30N 28°08' W 015°24'0 0.0
2018-Jan-18 17:00N 28°08' W 015°24'0 0.0
2018-Jan-18 16:30N 28°08' W 015°23'0 0.0
2018-Jan-18 16:00N 28°08' W 015°23'0 0.1
2018-Jan-18 15:30N 28°08' W 015°23'0 0.0
2018-Jan-18 14:51N 28°08' W 015°23'0 0.1
2018-Jan-18 14:21N 28°08' W 015°23'0 0.0
2018-Jan-18 13:51N 28°08' W 015°23'0 0.0
2018-Jan-18 13:24N 28°08' W 015°23'0 0.0
2018-Jan-18 12:54N 28°08' W 015°24'0 0.1
2018-Jan-18 12:21N 28°08' W 015°23'0 0.0
2018-Jan-18 11:54N 28°08' W 015°23'0 0.0
2018-Jan-18 11:24N 28°08' W 015°23'0 0.0
2018-Jan-18 10:54N 28°08' W 015°23'0 0.0
2018-Jan-18 10:27N 28°08' W 015°23'0 0.1
2018-Jan-18 09:57N 28°08' W 015°23'0 0.1
2018-Jan-18 09:27N 28°08' W 015°23'0 0.1
2018-Jan-18 08:57N 28°08' W 015°23'0 0.2
2018-Jan-18 08:27N 28°08' W 015°24'0 0.0
2018-Jan-18 07:57N 28°08' W 015°24'0 0.0
2018-Jan-18 07:30N 28°08' W 015°23'0 0.0
2018-Jan-18 07:00N 28°08' W 015°23'0 0.1
2018-Jan-18 06:30N 28°08' W 015°23'0 0.0
2018-Jan-18 06:00N 28°08' W 015°23'0 0.0
2018-Jan-18 05:30N 28°08' W 015°23'0 0.0
2018-Jan-18 05:00N 28°08' W 015°23'0 0.0
2018-Jan-18 04:30N 28°08' W 015°23'0 0.0
2018-Jan-18 04:00N 28°08' W 015°23'0 0.0
2018-Jan-18 03:30N 28°08' W 015°23'0 0.0
2018-Jan-18 03:00N 28°08' W 015°23'0 0.1
2018-Jan-18 02:30N 28°08' W 015°23'0 0.0
2018-Jan-18 02:00N 28°08' W 015°23'0 0.1
2018-Jan-18 01:30N 28°08' W 015°24'0 0.0
2018-Jan-18 01:00N 28°08' W 015°24'0 0.0
2018-Jan-17 23:54N 28°08' W 015°24'  
2018-Jan-12 14:59N 41°12' W 008°45'0 0.1
2018-Jan-12 14:29N 41°12' W 008°45'0 0.0
2018-Jan-12 13:59N 41°12' W 008°45'0 0.0
2018-Jan-12 13:29N 41°12' W 008°45'0 0.0
2018-Jan-12 12:59N 41°12' W 008°45'0 0.2
2018-Jan-12 12:29N 41°12' W 008°45'0 0.2
2018-Jan-12 11:59N 41°12' W 008°45'0 0.0
2018-Jan-12 11:29N 41°12' W 008°45'0 0.1
2018-Jan-12 10:59N 41°12' W 008°45'0 0.0
2018-Jan-12 10:29N 41°12' W 008°45'0 0.3
2018-Jan-12 09:59N 41°12' W 008°45'1 2.3
2018-Jan-12 09:30N 41°11' W 008°45'1 2.4
2018-Jan-12 09:01N 41°10' W 008°47'3 5.2
2018-Jan-12 08:30N 41°09' W 008°50'1 1.6
2018-Jan-12 08:00N 41°09' W 008°51'0 0.5
2018-Jan-12 07:30N 41°09' W 008°51'3 5.1
2018-Jan-12 07:00N 41°07' W 008°53'0 0.8
2018-Jan-12 06:31N 41°07' W 008°54'1 1.1
2018-Jan-12 06:00N 41°07' W 008°54'1 1.1
2018-Jan-12 05:30N 41°08' W 008°54'1 1.2
2018-Jan-12 04:58N 41°09' W 008°54'1 0.7
2018-Jan-12 04:12N 41°09' W 008°54'1 2.9
2018-Jan-12 04:00N 41°09' W 008°54'2 4.5
2018-Jan-12 03:27N 41°07' W 008°52'1 2.7
2018-Jan-12 03:00N 41°06' W 008°50'1 1.6
2018-Jan-12 02:30N 41°07' W 008°50'1 1.6
2018-Jan-12 02:00N 41°08' W 008°51'1 1.5
2018-Jan-12 01:28N 41°09' W 008°51'1 1.6
2018-Jan-12 01:00N 41°09' W 008°51'1 1.4
2018-Jan-12 00:30N 41°10' W 008°51'1 1.5
2018-Jan-12 00:00N 41°11' W 008°52'1 1.7
2018-Jan-11 23:30N 41°11' W 008°52'0 0.6
2018-Jan-11 23:00N 41°12' W 008°52'2 4.5
2018-Jan-11 22:30N 41°09' W 008°52'2 4.4
2018-Jan-11 21:59N 41°07' W 008°52'2 4.5
2018-Jan-11 21:29N 41°05' W 008°52'6 2.6
2018-Jan-11 19:18N 40°59' W 008°52'1 2.0
2018-Jan-11 18:56N 40°60' W 008°52'1 1.9
2018-Jan-11 18:26N 41°01' W 008°52'1 2.0
2018-Jan-11 17:43N 41°02' W 008°53'1 2.0
2018-Jan-11 17:27N 41°03' W 008°53'1 2.1
2018-Jan-11 17:00N 41°04' W 008°53'2 2.2
2018-Jan-11 16:18N 41°05' W 008°53'2 0.4
2018-Jan-11 10:11N 41°03' W 008°52'1 6.2
2018-Jan-11 10:00N 41°04' W 008°52'3 6.1
2018-Jan-11 09:30N 41°07' W 008°52'3 6.0
2018-Jan-11 09:00N 41°10' W 008°52'3 5.9
2018-Jan-11 08:30N 41°13' W 008°52'2 3.6
2018-Jan-11 07:58N 41°15' W 008°51'1 2.2
2018-Jan-11 07:24N 41°14' W 008°52'1 1.9
2018-Jan-11 07:00N 41°13' W 008°52'1 2.3
2018-Jan-11 06:30N 41°12' W 008°52'1 2.2
2018-Jan-11 06:00N 41°11' W 008°52'1 2.5
2018-Jan-11 05:31N 41°10' W 008°52'1 2.1
2018-Jan-11 04:54N 41°09' W 008°52'1 2.1
2018-Jan-11 04:30N 41°08' W 008°52'1 1.6
2018-Jan-11 04:00N 41°07' W 008°52'1 1.8
2018-Jan-11 03:30N 41°06' W 008°52'1 1.7
2018-Jan-11 03:00N 41°05' W 008°51'1 1.7
2018-Jan-11 02:30N 41°04' W 008°51'1 2.0
2018-Jan-11 01:57N 41°03' W 008°52'1 1.8
2018-Jan-11 01:24N 41°02' W 008°52'2 1.9
2018-Jan-11 00:11N 41°00' W 008°52'0 2.5
2018-Jan-11 00:00N 40°60' W 008°53'0 0.8
2018-Jan-10 23:30N 40°60' W 008°52'3 5.7
2018-Jan-10 22:56N 41°03' W 008°52'2 5.7
2018-Jan-10 22:30N 41°05' W 008°52'3 5.5
2018-Jan-10 22:00N 41°08' W 008°53'3 5.5
2018-Jan-10 21:30N 41°11' W 008°53'3 5.4
2018-Jan-10 21:00N 41°14' W 008°53'1 1.4
2018-Jan-10 20:29N 41°14' W 008°53'1 2.1
2018-Jan-10 19:47N 41°13' W 008°53'1 1.5
2018-Jan-10 19:19N 41°12' W 008°53'5 1.6
2018-Jan-10 16:08N 41°07' W 008°52'0 2.3
2018-Jan-10 15:58N 41°08' W 008°52'1 2.9
2018-Jan-10 15:30N 41°09' W 008°51'1 2.4
2018-Jan-10 15:00N 41°10' W 008°52'1 2.3
2018-Jan-10 14:30N 41°11' W 008°53'2 2.6
2018-Jan-10 13:54N 41°09' W 008°53'2 3.3
2018-Jan-10 13:26N 41°08' W 008°52'3 3.3
2018-Jan-10 12:39N 41°05' W 008°52'4 1.5
2018-Jan-10 10:00N 41°01' W 008°53'2 2.5
2018-Jan-10 09:19N 41°02' W 008°55'1 2.2
2018-Jan-10 08:48N 41°02' W 008°57'3 3.2
2018-Jan-10 07:52N 41°04' W 008°53'2 5.0
2018-Jan-10 07:28N 41°04' W 008°51'1 1.7
2018-Jan-10 06:55N 41°03' W 008°50'1 1.7
2018-Jan-10 06:30N 41°02' W 008°51'1 1.9
2018-Jan-10 06:00N 41°02' W 008°52'1 1.8
2018-Jan-10 05:25N 41°02' W 008°54'1 1.9
2018-Jan-10 05:00N 41°03' W 008°55'1 1.7
2018-Jan-10 04:29N 41°03' W 008°56'1 1.1
2018-Jan-10 03:39N 41°04' W 008°55'1 4.9
2018-Jan-10 03:28N 41°05' W 008°55'2 5.2
2018-Jan-10 03:00N 41°07' W 008°54'3 5.1
2018-Jan-10 02:30N 41°09' W 008°52'2 4.5
2018-Jan-10 02:00N 41°11' W 008°51'1 1.3
2018-Jan-10 01:30N 41°11' W 008°51'1 1.6
2018-Jan-10 01:00N 41°10' W 008°51'1 1.3
2018-Jan-10 00:30N 41°10' W 008°52'1 1.3
2018-Jan-10 00:00N 41°09' W 008°53'1 1.4
2018-Jan-09 23:30N 41°09' W 008°53'1 1.6
2018-Jan-09 23:00N 41°08' W 008°54'1 1.5
2018-Jan-09 22:30N 41°07' W 008°54'2 2.4
2018-Jan-09 21:43N 41°07' W 008°52'1 4.9
2018-Jan-09 21:27N 41°07' W 008°50'2 4.8
2018-Jan-09 21:00N 41°08' W 008°47'2 4.4
2018-Jan-09 20:30N 41°09' W 008°45'2 3.2
2018-Jan-09 20:00N 41°10' W 008°45'2 3.6
2018-Jan-09 19:30N 41°12' W 008°45'0 0.5
2018-Jan-09 19:00N 41°12' W 008°45'0 0.1
2018-Jan-09 18:28N 41°12' W 008°45'0 0.0
2018-Jan-09 18:00N 41°12' W 008°45'0 0.0
2018-Jan-09 17:28N 41°12' W 008°45'0 0.0
2018-Jan-09 16:58N 41°12' W 008°45'0 0.0
2018-Jan-09 16:31N 41°12' W 008°45'0 0.0
2018-Jan-09 16:01N 41°12' W 008°45'0 0.0
2018-Jan-09 15:31N 41°12' W 008°45'0 0.0
2018-Jan-09 15:01N 41°12' W 008°45'0 0.0
2018-Jan-09 14:27N 41°12' W 008°45'0 0.0
2018-Jan-09 14:01N 41°12' W 008°45'0 0.0
2018-Jan-09 13:30N 41°12' W 008°45'0 0.0
2018-Jan-09 13:01N 41°12' W 008°45'0 0.0
2018-Jan-09 12:30N 41°12' W 008°45'0 0.0
2018-Jan-09 11:57N 41°12' W 008°45'0 0.0
2018-Jan-09 11:31N 41°12' W 008°45'0 0.0
2018-Jan-09 11:01N 41°12' W 008°45'0 0.0
2018-Jan-09 10:30N 41°12' W 008°45'0 0.0
2018-Jan-09 10:00N 41°12' W 008°45'0 0.0
2018-Jan-09 09:30N 41°12' W 008°45'0 0.0
2018-Jan-09 09:00N 41°12' W 008°45'0 0.0
2018-Jan-09 08:30N 41°12' W 008°45'0 0.0
2018-Jan-09 07:58N 41°12' W 008°45'0 0.0
2018-Jan-09 07:31N 41°12' W 008°45'0 0.0
2018-Jan-09 07:00N 41°12' W 008°45'0 0.0
2018-Jan-09 06:28N 41°12' W 008°45'0 0.0
2018-Jan-09 06:01N 41°12' W 008°45'0 0.0
2018-Jan-09 05:27N 41°12' W 008°45'0 0.0
2018-Jan-09 05:00N 41°12' W 008°45'0 0.0
2018-Jan-09 04:30N 41°12' W 008°45'0 0.0
2018-Jan-09 04:00N 41°12' W 008°45'0 0.0
2018-Jan-09 03:28N 41°12' W 008°45'0 0.0
2018-Jan-09 02:55N 41°12' W 008°45'0 0.0
2018-Jan-09 02:27N 41°12' W 008°45'0 0.0
2018-Jan-09 01:48N 41°12' W 008°45'0 0.0
2018-Jan-09 01:30N 41°12' W 008°45'0 0.1
2018-Jan-09 00:58N 41°12' W 008°45'0 0.1
2018-Jan-09 00:27N 41°12' W 008°45'0 0.0
2018-Jan-08 23:57N 41°12' W 008°45'0 0.0
2018-Jan-08 23:27N 41°12' W 008°45'0 0.0
2018-Jan-08 22:57N 41°12' W 008°45'0 0.0
2018-Jan-08 22:28N 41°12' W 008°45'0 0.1
2018-Jan-08 22:00N 41°12' W 008°45'0 0.1
2018-Jan-08 21:31N 41°12' W 008°45'0 0.0
2018-Jan-08 21:01N 41°12' W 008°45'0 0.0
2018-Jan-08 20:31N 41°12' W 008°45'0 0.0
2018-Jan-08 20:01N 41°12' W 008°45'0 0.1
2018-Jan-08 19:31N 41°12' W 008°45'  
Track history (hours):
 
Tides and Currents Weather Stations Pressure Air Temp Water Temp Dewpoint Dewpoint Depression Visibility Wind Speed Wind Dir Waves Ship Positions

Scf Ural

Last reported at 2018-Jan-18 19:30 UTC. Time now 2018-Jan-18 19:38 UTC.
Position N 28°08' W 015°23'.

Length 274 m; draft 9.1 m.

Type: Ship. MMSI: 636011494.

Date/timePositionNaut miles runAvg speedWind from/ knotsBaromVisibWave heightAir tempDewpointWater temp
2018-Jan-18 19:30N 28°08' W 015°23'0 0.1
2018-Jan-18 19:00N 28°08' W 015°23'0 0.0
2018-Jan-18 18:27N 28°08' W 015°23'0 0.1
2018-Jan-18 18:00N 28°08' W 015°24'0 0.0
2018-Jan-18 17:30N 28°08' W 015°24'0 0.0
2018-Jan-18 17:00N 28°08' W 015°24'0 0.0
2018-Jan-18 16:30N 28°08' W 015°23'0 0.0
2018-Jan-18 16:00N 28°08' W 015°23'0 0.1
2018-Jan-18 15:30N 28°08' W 015°23'0 0.0
2018-Jan-18 14:51N 28°08' W 015°23'0 0.1
2018-Jan-18 14:21N 28°08' W 015°23'0 0.0
2018-Jan-18 13:51N 28°08' W 015°23'0 0.0
2018-Jan-18 13:24N 28°08' W 015°23'0 0.0
2018-Jan-18 12:54N 28°08' W 015°24'0 0.1
2018-Jan-18 12:21N 28°08' W 015°23'0 0.0
2018-Jan-18 11:54N 28°08' W 015°23'0 0.0
2018-Jan-18 11:24N 28°08' W 015°23'0 0.0
2018-Jan-18 10:54N 28°08' W 015°23'0 0.0
2018-Jan-18 10:27N 28°08' W 015°23'0 0.1
2018-Jan-18 09:57N 28°08' W 015°23'0 0.1
2018-Jan-18 09:27N 28°08' W 015°23'0 0.1
2018-Jan-18 08:57N 28°08' W 015°23'0 0.2
2018-Jan-18 08:27N 28°08' W 015°24'0 0.0
2018-Jan-18 07:57N 28°08' W 015°24'0 0.0
2018-Jan-18 07:30N 28°08' W 015°23'0 0.0
2018-Jan-18 07:00N 28°08' W 015°23'0 0.1
2018-Jan-18 06:30N 28°08' W 015°23'0 0.0
2018-Jan-18 06:00N 28°08' W 015°23'0 0.0
2018-Jan-18 05:30N 28°08' W 015°23'0 0.0
2018-Jan-18 05:00N 28°08' W 015°23'0 0.0
2018-Jan-18 04:30N 28°08' W 015°23'0 0.0
2018-Jan-18 04:00N 28°08' W 015°23'0 0.0
2018-Jan-18 03:30N 28°08' W 015°23'0 0.0
2018-Jan-18 03:00N 28°08' W 015°23'0 0.1
2018-Jan-18 02:30N 28°08' W 015°23'0 0.0
2018-Jan-18 02:00N 28°08' W 015°23'0 0.1
2018-Jan-18 01:30N 28°08' W 015°24'0 0.0
2018-Jan-18 01:00N 28°08' W 015°24'0 0.0
2018-Jan-17 23:54N 28°08' W 015°24'  
2018-Jan-12 14:59N 41°12' W 008°45'0 0.1
2018-Jan-12 14:29N 41°12' W 008°45'0 0.0
2018-Jan-12 13:59N 41°12' W 008°45'0 0.0
2018-Jan-12 13:29N 41°12' W 008°45'0 0.0
2018-Jan-12 12:59N 41°12' W 008°45'0 0.2
2018-Jan-12 12:29N 41°12' W 008°45'0 0.2
2018-Jan-12 11:59N 41°12' W 008°45'0 0.0
2018-Jan-12 11:29N 41°12' W 008°45'0 0.1
2018-Jan-12 10:59N 41°12' W 008°45'0 0.0
2018-Jan-12 10:29N 41°12' W 008°45'0 0.3
2018-Jan-12 09:59N 41°12' W 008°45'1 2.3
2018-Jan-12 09:30N 41°11' W 008°45'1 2.4
2018-Jan-12 09:01N 41°10' W 008°47'3 5.2
2018-Jan-12 08:30N 41°09' W 008°50'1 1.6
2018-Jan-12 08:00N 41°09' W 008°51'0 0.5
2018-Jan-12 07:30N 41°09' W 008°51'3 5.1
2018-Jan-12 07:00N 41°07' W 008°53'0 0.8
2018-Jan-12 06:31N 41°07' W 008°54'1 1.1
2018-Jan-12 06:00N 41°07' W 008°54'1 1.1
2018-Jan-12 05:30N 41°08' W 008°54'1 1.2
2018-Jan-12 04:58N 41°09' W 008°54'1 0.7
2018-Jan-12 04:12N 41°09' W 008°54'1 2.9
2018-Jan-12 04:00N 41°09' W 008°54'2 4.5
2018-Jan-12 03:27N 41°07' W 008°52'1 2.7
2018-Jan-12 03:00N 41°06' W 008°50'1 1.6
2018-Jan-12 02:30N 41°07' W 008°50'1 1.6
2018-Jan-12 02:00N 41°08' W 008°51'1 1.5
2018-Jan-12 01:28N 41°09' W 008°51'1 1.6
2018-Jan-12 01:00N 41°09' W 008°51'1 1.4
2018-Jan-12 00:30N 41°10' W 008°51'1 1.5
2018-Jan-12 00:00N 41°11' W 008°52'1 1.7
2018-Jan-11 23:30N 41°11' W 008°52'0 0.6
2018-Jan-11 23:00N 41°12' W 008°52'2 4.5
2018-Jan-11 22:30N 41°09' W 008°52'2 4.4
2018-Jan-11 21:59N 41°07' W 008°52'2 4.5
2018-Jan-11 21:29N 41°05' W 008°52'6 2.6
2018-Jan-11 19:18N 40°59' W 008°52'1 2.0
2018-Jan-11 18:56N 40°60' W 008°52'1 1.9
2018-Jan-11 18:26N 41°01' W 008°52'1 2.0
2018-Jan-11 17:43N 41°02' W 008°53'1 2.0
2018-Jan-11 17:27N 41°03' W 008°53'1 2.1
2018-Jan-11 17:00N 41°04' W 008°53'2 2.2
2018-Jan-11 16:18N 41°05' W 008°53'2 0.4
2018-Jan-11 10:11N 41°03' W 008°52'1 6.2
2018-Jan-11 10:00N 41°04' W 008°52'3 6.1
2018-Jan-11 09:30N 41°07' W 008°52'3 6.0
2018-Jan-11 09:00N 41°10' W 008°52'3 5.9
2018-Jan-11 08:30N 41°13' W 008°52'2 3.6
2018-Jan-11 07:58N 41°15' W 008°51'1 2.2
2018-Jan-11 07:24N 41°14' W 008°52'1 1.9
2018-Jan-11 07:00N 41°13' W 008°52'1 2.3
2018-Jan-11 06:30N 41°12' W 008°52'1 2.2
2018-Jan-11 06:00N 41°11' W 008°52'1 2.5
2018-Jan-11 05:31N 41°10' W 008°52'1 2.1
2018-Jan-11 04:54N 41°09' W 008°52'1 2.1
2018-Jan-11 04:30N 41°08' W 008°52'1 1.6
2018-Jan-11 04:00N 41°07' W 008°52'1 1.8
2018-Jan-11 03:30N 41°06' W 008°52'1 1.7
2018-Jan-11 03:00N 41°05' W 008°51'1 1.7
2018-Jan-11 02:30N 41°04' W 008°51'1 2.0
2018-Jan-11 01:57N 41°03' W 008°52'1 1.8
2018-Jan-11 01:24N 41°02' W 008°52'2 1.9
2018-Jan-11 00:11N 41°00' W 008°52'0 2.5
2018-Jan-11 00:00N 40°60' W 008°53'0 0.8
2018-Jan-10 23:30N 40°60' W 008°52'3 5.7
2018-Jan-10 22:56N 41°03' W 008°52'2 5.7
2018-Jan-10 22:30N 41°05' W 008°52'3 5.5
2018-Jan-10 22:00N 41°08' W 008°53'3 5.5
2018-Jan-10 21:30N 41°11' W 008°53'3 5.4
2018-Jan-10 21:00N 41°14' W 008°53'1 1.4
2018-Jan-10 20:29N 41°14' W 008°53'1 2.1
2018-Jan-10 19:47N 41°13' W 008°53'1 1.5
2018-Jan-10 19:19N 41°12' W 008°53'5 1.6
2018-Jan-10 16:08N 41°07' W 008°52'0 2.3
2018-Jan-10 15:58N 41°08' W 008°52'1 2.9
2018-Jan-10 15:30N 41°09' W 008°51'1 2.4
2018-Jan-10 15:00N 41°10' W 008°52'1 2.3
2018-Jan-10 14:30N 41°11' W 008°53'2 2.6
2018-Jan-10 13:54N 41°09' W 008°53'2 3.3
2018-Jan-10 13:26N 41°08' W 008°52'3 3.3
2018-Jan-10 12:39N 41°05' W 008°52'4 1.5
2018-Jan-10 10:00N 41°01' W 008°53'2 2.5
2018-Jan-10 09:19N 41°02' W 008°55'1 2.2
2018-Jan-10 08:48N 41°02' W 008°57'3 3.2
2018-Jan-10 07:52N 41°04' W 008°53'2 5.0
2018-Jan-10 07:28N 41°04' W 008°51'1 1.7
2018-Jan-10 06:55N 41°03' W 008°50'1 1.7
2018-Jan-10 06:30N 41°02' W 008°51'1 1.9
2018-Jan-10 06:00N 41°02' W 008°52'1 1.8
2018-Jan-10 05:25N 41°02' W 008°54'1 1.9
2018-Jan-10 05:00N 41°03' W 008°55'1 1.7
2018-Jan-10 04:29N 41°03' W 008°56'1 1.1
2018-Jan-10 03:39N 41°04' W 008°55'1 4.9
2018-Jan-10 03:28N 41°05' W 008°55'2 5.2
2018-Jan-10 03:00N 41°07' W 008°54'3 5.1
2018-Jan-10 02:30N 41°09' W 008°52'2 4.5
2018-Jan-10 02:00N 41°11' W 008°51'1 1.3
2018-Jan-10 01:30N 41°11' W 008°51'1 1.6
2018-Jan-10 01:00N 41°10' W 008°51'1 1.3
2018-Jan-10 00:30N 41°10' W 008°52'1 1.3
2018-Jan-10 00:00N 41°09' W 008°53'1 1.4
2018-Jan-09 23:30N 41°09' W 008°53'1 1.6
2018-Jan-09 23:00N 41°08' W 008°54'1 1.5
2018-Jan-09 22:30N 41°07' W 008°54'2 2.4
2018-Jan-09 21:43N 41°07' W 008°52'1 4.9
2018-Jan-09 21:27N 41°07' W 008°50'2 4.8
2018-Jan-09 21:00N 41°08' W 008°47'2 4.4
2018-Jan-09 20:30N 41°09' W 008°45'2 3.2
2018-Jan-09 20:00N 41°10' W 008°45'2 3.6
2018-Jan-09 19:30N 41°12' W 008°45'0 0.5
2018-Jan-09 19:00N 41°12' W 008°45'0 0.1
2018-Jan-09 18:28N 41°12' W 008°45'0 0.0
2018-Jan-09 18:00N 41°12' W 008°45'0 0.0
2018-Jan-09 17:28N 41°12' W 008°45'0 0.0
2018-Jan-09 16:58N 41°12' W 008°45'0 0.0
2018-Jan-09 16:31N 41°12' W 008°45'0 0.0
2018-Jan-09 16:01N 41°12' W 008°45'0 0.0
2018-Jan-09 15:31N 41°12' W 008°45'0 0.0
2018-Jan-09 15:01N 41°12' W 008°45'0 0.0
2018-Jan-09 14:27N 41°12' W 008°45'0 0.0
2018-Jan-09 14:01N 41°12' W 008°45'0 0.0
2018-Jan-09 13:30N 41°12' W 008°45'0 0.0
2018-Jan-09 13:01N 41°12' W 008°45'0 0.0
2018-Jan-09 12:30N 41°12' W 008°45'0 0.0
2018-Jan-09 11:57N 41°12' W 008°45'0 0.0
2018-Jan-09 11:31N 41°12' W 008°45'0 0.0
2018-Jan-09 11:01N 41°12' W 008°45'0 0.0
2018-Jan-09 10:30N 41°12' W 008°45'0 0.0
2018-Jan-09 10:00N 41°12' W 008°45'0 0.0
2018-Jan-09 09:30N 41°12' W 008°45'0 0.0
2018-Jan-09 09:00N 41°12' W 008°45'0 0.0
2018-Jan-09 08:30N 41°12' W 008°45'0 0.0
2018-Jan-09 07:58N 41°12' W 008°45'0 0.0
2018-Jan-09 07:31N 41°12' W 008°45'0 0.0
2018-Jan-09 07:00N 41°12' W 008°45'0 0.0
2018-Jan-09 06:28N 41°12' W 008°45'0 0.0
2018-Jan-09 06:01N 41°12' W 008°45'0 0.0
2018-Jan-09 05:27N 41°12' W 008°45'0 0.0
2018-Jan-09 05:00N 41°12' W 008°45'0 0.0
2018-Jan-09 04:30N 41°12' W 008°45'0 0.0
2018-Jan-09 04:00N 41°12' W 008°45'0 0.0
2018-Jan-09 03:28N 41°12' W 008°45'0 0.0
2018-Jan-09 02:55N 41°12' W 008°45'0 0.0
2018-Jan-09 02:27N 41°12' W 008°45'0 0.0
2018-Jan-09 01:48N 41°12' W 008°45'0 0.0
2018-Jan-09 01:30N 41°12' W 008°45'0 0.1
2018-Jan-09 00:58N 41°12' W 008°45'0 0.1
2018-Jan-09 00:27N 41°12' W 008°45'0 0.0
2018-Jan-08 23:57N 41°12' W 008°45'0 0.0
2018-Jan-08 23:27N 41°12' W 008°45'0 0.0
2018-Jan-08 22:57N 41°12' W 008°45'0 0.0
2018-Jan-08 22:28N 41°12' W 008°45'0 0.1
2018-Jan-08 22:00N 41°12' W 008°45'0 0.1
2018-Jan-08 21:31N 41°12' W 008°45'0 0.0
2018-Jan-08 21:01N 41°12' W 008°45'0 0.0
2018-Jan-08 20:31N 41°12' W 008°45'0 0.0
2018-Jan-08 20:01N 41°12' W 008°45'0 0.1
2018-Jan-08 19:31N 41°12' W 008°45'  

Dump ship's entire track history